Alaska, Minnesota
Current Conditions -  °F | °C
As of 4:13 AM on Sunday 25 Jan 2015 (Local Time) from KBJI Reporting Station
Overcast Overcast  
Wind Chill:   Ceiling: 1300
Heat Index: 15°   Visibility: 10mi
Dew Point:   Wind: 6mph
Humidity: 78%   Direction: 30°NNE
Pressure: 29.91"   Gusts: NA
Location:  47.7369°N, 94.9947°W
Report Text: KBJI 251013Z AUTO 03005KT 10SM OVC013 M09/M13 A2991 RMK AO2 T10951127
Loading
Personal Weather Stations






























Interactive Weather Map New forecast layout! Learn more

10-Day Weather Forecast

Advertisements
Track Severe Weather on mobile